createdAt,value
2016-05-02T00:00:32.337Z,17.58
2016-05-02T00:01:31.980Z,17.57
2016-05-02T00:02:32.561Z,17.46
2016-05-02T00:03:31.971Z,17.46
2016-05-02T00:04:32.332Z,17.47
2016-05-02T00:05:32.335Z,17.46
2016-05-02T00:06:32.385Z,17.5
2016-05-02T00:07:32.324Z,17.5
2016-05-02T00:08:32.312Z,17.47
2016-05-02T00:09:32.721Z,17.39
2016-05-02T00:10:31.942Z,17.46
2016-05-02T00:11:32.507Z,17.35
2016-05-02T00:12:32.151Z,17.35
2016-05-02T00:13:32.293Z,17.31
2016-05-02T00:14:31.967Z,17.38
2016-05-02T00:15:32.487Z,17.38
2016-05-02T00:16:32.271Z,17.31
2016-05-02T00:17:32.273Z,17.31
2016-05-02T00:18:32.261Z,17.35
2016-05-02T00:19:32.669Z,17.32
2016-05-02T00:20:32.312Z,17.25
2016-05-02T00:21:32.471Z,17.31
2016-05-02T00:22:32.443Z,17.25
2016-05-02T00:23:32.445Z,17.25
2016-05-02T00:24:32.245Z,17.24
2016-05-02T00:25:32.436Z,17.27
2016-05-02T00:26:32.235Z,17.28
2016-05-02T00:27:32.221Z,17.25
2016-05-02T00:28:32.474Z,17.18
2016-05-02T00:29:32.009Z,17.13
2016-05-02T00:30:32.464Z,17.27
2016-05-02T00:31:32.311Z,17.24
2016-05-02T00:32:32.188Z,17.15
2016-05-02T00:33:32.238Z,17.18
2016-05-02T00:34:32.396Z,17.12
2016-05-02T00:35:32.196Z,17.12
2016-05-02T00:36:32.324Z,17.17
2016-05-02T00:37:32.577Z,17.15
2016-05-02T00:38:32.579Z,17.13
2016-05-02T00:39:32.160Z,17.17
2016-05-02T00:40:32.350Z,17.13
2016-05-02T00:41:32.354Z,17.13
2016-05-02T00:42:32.356Z,17.07
2016-05-02T00:43:32.140Z,17.07
2016-05-02T00:44:31.986Z,17.13
2016-05-02T00:45:32.551Z,17.06
2016-05-02T00:46:32.148Z,17.05
2016-05-02T00:47:32.197Z,17.05
2016-05-02T00:48:32.309Z,17.05
2016-05-02T00:49:32.109Z,16.95
2016-05-02T00:50:32.112Z,16.95
2016-05-02T00:51:33.442Z,16.95
2016-05-02T00:52:31.945Z,17
2016-05-02T00:53:32.105Z,16.99
2016-05-02T00:54:32.091Z,17.02
2016-05-02T00:55:32.313Z,17
2016-05-02T00:56:32.284Z,16.94
2016-05-02T00:57:32.161Z,16.95
2016-05-02T00:58:31.914Z,16.95
2016-05-02T00:59:32.277Z,16.92
2016-05-02T01:00:32.107Z,16.97
2016-05-02T01:01:32.094Z,16.99
2016-05-02T01:02:32.106Z,16.88
2016-05-02T01:03:32.497Z,16.91
2016-05-02T01:04:32.185Z,16.88
2016-05-02T01:05:32.169Z,16.88
2016-05-02T01:06:33.090Z,16.99
2016-05-02T01:07:32.444Z,16.92
2016-05-02T01:08:32.681Z,16.95
2016-05-02T01:09:32.310Z,16.94
2016-05-02T01:10:32.282Z,16.87
2016-05-02T01:11:32.488Z,16.92
2016-05-02T01:12:32.302Z,16.91
2016-05-02T01:13:32.717Z,16.85
2016-05-02T01:14:32.709Z,16.87
2016-05-02T01:15:32.718Z,16.94
2016-05-02T01:16:32.711Z,16.88
2016-05-02T01:17:32.515Z,16.92
2016-05-02T01:18:32.520Z,16.94
2016-05-02T01:19:32.509Z,16.84
2016-05-02T01:20:32.295Z,16.85
2016-05-02T01:21:32.596Z,16.87
2016-05-02T01:22:32.538Z,16.81
2016-05-02T01:23:32.494Z,16.85
2016-05-02T01:24:41.514Z,16.77
2016-05-02T01:25:32.690Z,16.82
2016-05-02T01:26:32.098Z,16.81
2016-05-02T01:27:32.524Z,16.74
2016-05-02T01:28:32.527Z,16.76
2016-05-02T01:29:32.264Z,16.8
2016-05-02T01:30:32.252Z,16.7
2016-05-02T01:31:32.490Z,16.72
2016-05-02T01:32:32.555Z,16.8
2016-05-02T01:33:32.448Z,16.74
2016-05-02T01:34:32.436Z,16.7
2016-05-02T01:35:32.063Z,16.66
2016-05-02T01:36:32.269Z,16.7
2016-05-02T01:37:32.412Z,16.7
2016-05-02T01:38:32.618Z,16.67
2016-05-02T01:39:32.214Z,16.69
2016-05-02T01:40:32.405Z,16.74
2016-05-02T01:41:31.985Z,16.66
2016-05-02T01:42:32.394Z,16.72
2016-05-02T01:43:32.022Z,16.63
2016-05-02T01:44:32.025Z,16.62
2016-05-02T01:45:32.183Z,16.67
2016-05-02T01:46:32.577Z,16.69
2016-05-02T01:47:32.174Z,16.73
2016-05-02T01:48:32.426Z,16.62
2016-05-02T01:49:32.163Z,16.66
2016-05-02T01:50:32.557Z,16.69
2016-05-02T01:51:32.247Z,16.69
2016-05-02T01:52:31.968Z,16.66
2016-05-02T01:53:32.533Z,16.67
2016-05-02T01:54:32.176Z,16.65
2016-05-02T01:55:32.132Z,16.57
2016-05-02T01:56:31.963Z,16.59
2016-05-02T01:57:32.310Z,16.66
2016-05-02T01:58:31.906Z,16.48
2016-05-02T01:59:32.315Z,16.65
2016-05-02T02:00:32.302Z,16.59
2016-05-02T02:01:31.726Z,16.55
2016-05-02T02:02:32.292Z,16.52
2016-05-02T02:03:32.295Z,16.52
2016-05-02T02:04:32.281Z,16.52
2016-05-02T02:05:32.112Z,16.52
2016-05-02T02:06:31.959Z,16.47
2016-05-02T02:07:32.258Z,16.44
2016-05-02T02:08:32.042Z,16.44
2016-05-02T02:09:32.045Z,16.4
2016-05-02T02:10:32.235Z,16.37
2016-05-02T02:11:32.097Z,16.39
2016-05-02T02:12:32.022Z,16.4
2016-05-02T02:13:32.025Z,16.47
2016-05-02T02:14:32.230Z,16.42
2016-05-02T02:15:32.217Z,16.47
2016-05-02T02:16:32.001Z,16.37
2016-05-02T02:17:32.410Z,16.47
2016-05-02T02:18:31.804Z,16.42
2016-05-02T02:19:31.978Z,16.42
2016-05-02T02:20:32.199Z,16.34
2016-05-02T02:21:33.280Z,16.36
2016-05-02T02:22:32.002Z,16.4
2016-05-02T02:23:32.223Z,16.3
2016-05-02T02:24:32.242Z,16.32
2016-05-02T02:25:32.171Z,16.4
2016-05-02T02:26:32.376Z,16.34
2016-05-02T02:27:31.870Z,16.4
2016-05-02T02:28:32.201Z,16.33
2016-05-02T02:29:32.343Z,16.33
2016-05-02T02:30:32.128Z,16.3
2016-05-02T02:31:32.177Z,16.25
2016-05-02T02:32:31.915Z,16.25
2016-05-02T02:33:32.151Z,16.21
2016-05-02T02:34:31.951Z,16.22
2016-05-02T02:35:31.922Z,16.13
2016-05-02T02:36:31.956Z,16.21
2016-05-02T02:37:32.303Z,16.16
2016-05-02T02:38:32.086Z,16.13
2016-05-02T02:39:31.714Z,16.16
2016-05-02T02:40:31.717Z,16.16
2016-05-02T02:41:32.283Z,16.07
2016-05-02T02:42:31.878Z,16.13
2016-05-02T02:43:32.256Z,16.07
2016-05-02T02:44:32.071Z,16.08
2016-05-02T02:45:32.261Z,16
2016-05-02T02:46:32.249Z,16.04
2016-05-02T02:47:31.642Z,16
2016-05-02T02:48:32.051Z,15.92
2016-05-02T02:49:32.054Z,16.02
2016-05-02T02:50:31.838Z,15.91
2016-05-02T02:51:31.669Z,15.96
2016-05-02T02:52:32.218Z,15.98
2016-05-02T02:53:32.002Z,15.96
2016-05-02T02:54:31.849Z,15.99
2016-05-02T02:55:31.835Z,15.95
2016-05-02T02:56:31.823Z,15.93
2016-05-02T02:57:32.184Z,15.89
2016-05-02T02:58:31.765Z,15.98
2016-05-02T02:59:31.972Z,15.95
2016-05-02T03:00:31.630Z,15.84
2016-05-02T03:01:31.961Z,15.86
2016-05-02T03:02:31.604Z,15.83
2016-05-02T03:03:31.373Z,15.83
2016-05-02T03:04:31.610Z,15.84
2016-05-02T03:05:31.785Z,15.86
2016-05-02T03:06:31.928Z,15.89
2016-05-02T03:07:31.931Z,15.86
2016-05-02T03:08:32.121Z,15.84
2016-05-02T03:09:31.561Z,15.8
2016-05-02T03:10:31.564Z,15.78
2016-05-02T03:11:31.739Z,15.77
2016-05-02T03:12:32.101Z,15.74
2016-05-02T03:13:31.884Z,15.83
2016-05-02T03:14:31.667Z,15.71
2016-05-02T03:15:31.670Z,15.75
2016-05-02T03:16:31.673Z,15.67
2016-05-02T03:17:31.864Z,15.7
2016-05-02T03:18:31.882Z,15.74
2016-05-02T03:19:31.650Z,15.67
2016-05-02T03:20:31.840Z,15.71
2016-05-02T03:21:32.031Z,15.65
2016-05-02T03:22:31.877Z,15.62
2016-05-02T03:23:32.036Z,15.63
2016-05-02T03:24:31.632Z,15.58
2016-05-02T03:25:32.010Z,15.59
2016-05-02T03:26:31.404Z,15.56
2016-05-02T03:27:31.437Z,15.6
2016-05-02T03:28:31.596Z,15.58
2016-05-02T03:29:31.474Z,15.59
2016-05-02T03:30:31.790Z,15.51
2016-05-02T03:31:31.573Z,15.52
2016-05-02T03:32:31.982Z,15.56
2016-05-02T03:33:31.765Z,15.51
2016-05-02T03:34:31.550Z,15.43
2016-05-02T03:35:31.756Z,15.49
2016-05-02T03:36:32.274Z,15.45
2016-05-02T03:37:31.933Z,15.44
2016-05-02T03:38:31.529Z,15.43
2016-05-02T03:39:31.735Z,15.44
2016-05-02T03:40:31.706Z,15.41
2016-05-02T03:41:31.912Z,15.47
2016-05-02T03:42:31.508Z,15.47
2016-05-02T03:43:31.699Z,15.51
2016-05-02T03:44:31.530Z,15.45
2016-05-02T03:45:31.689Z,15.44
2016-05-02T03:46:31.879Z,15.44
2016-05-02T03:47:31.881Z,15.3
2016-05-02T03:48:31.478Z,15.34
2016-05-02T03:49:31.715Z,15.35
2016-05-02T03:50:31.499Z,15.33
2016-05-02T03:51:31.064Z,15.34
2016-05-02T03:52:31.255Z,15.34
2016-05-02T03:53:31.632Z,15.27
2016-05-02T03:54:31.650Z,15.26
2016-05-02T03:55:31.622Z,15.25
2016-05-02T03:56:31.813Z,15.31
2016-05-02T03:57:31.409Z,15.34
2016-05-02T03:58:31.615Z,15.33
2016-05-02T03:59:31.602Z,15.26
2016-05-02T04:00:31.401Z,15.26
2016-05-02T04:01:31.591Z,15.2
2016-05-02T04:02:31.579Z,15.23
2016-05-02T04:03:31.582Z,15.2
2016-05-02T04:04:31.568Z,15.18
2016-05-02T04:05:31.352Z,15.16
2016-05-02T04:06:31.605Z,15.23
2016-05-02T04:07:31.764Z,15.15
2016-05-02T04:08:31.548Z,15.22
2016-05-02T04:09:31.347Z,15.18
2016-05-02T04:10:31.365Z,15.15
2016-05-02T04:11:31.321Z,15.13
2016-05-02T04:12:31.371Z,15.15
2016-05-02T04:13:31.358Z,15.22
2016-05-02T04:14:31.704Z,15.07
2016-05-02T04:15:31.692Z,15.13
2016-05-02T04:16:31.475Z,15.13
2016-05-02T04:17:31.291Z,15.12
2016-05-02T04:18:31.481Z,15.15
2016-05-02T04:19:31.264Z,15.07
2016-05-02T04:20:31.064Z,15.08
2016-05-02T04:21:32.223Z,15.07
2016-05-02T04:22:31.100Z,15.02
2016-05-02T04:23:31.291Z,14.94
2016-05-02T04:24:31.638Z,14.94
2016-05-02T04:25:31.437Z,14.94
2016-05-02T04:26:31.408Z,14.98
2016-05-02T04:27:31.208Z,14.9
2016-05-02T04:28:31.195Z,14.93
2016-05-02T04:29:31.198Z,14.94
2016-05-02T04:30:31.201Z,14.97
2016-05-02T04:31:31.234Z,14.86
2016-05-02T04:32:31.377Z,14.97
2016-05-02T04:33:30.959Z,14.95
2016-05-02T04:34:31.024Z,14.85
2016-05-02T04:35:31.167Z,14.8
2016-05-02T04:36:31.373Z,14.79
2016-05-02T04:37:31.141Z,14.86
2016-05-02T04:38:30.988Z,14.86
2016-05-02T04:39:31.381Z,14.86
2016-05-02T04:40:31.336Z,14.82
2016-05-02T04:41:31.323Z,14.85
2016-05-02T04:42:31.515Z,14.89
2016-05-02T04:43:31.501Z,14.85
2016-05-02T04:44:31.520Z,14.86
2016-05-02T04:45:31.303Z,14.85
2016-05-02T04:46:30.775Z,14.83
2016-05-02T04:47:31.122Z,14.89
2016-05-02T04:48:31.077Z,14.83
2016-05-02T04:49:31.267Z,14.86
2016-05-02T04:50:31.270Z,14.71
2016-05-02T04:51:30.897Z,14.75
2016-05-02T04:52:31.244Z,14.74
2016-05-02T04:53:31.028Z,14.79
2016-05-02T04:54:31.436Z,14.7
2016-05-02T04:55:31.268Z,14.63
2016-05-02T04:56:31.224Z,14.7
2016-05-02T04:57:31.227Z,14.64
2016-05-02T04:58:30.994Z,14.57
2016-05-02T04:59:30.982Z,14.59
2016-05-02T05:00:31.391Z,14.67
2016-05-02T05:01:30.987Z,14.61
2016-05-02T05:02:31.177Z,14.61
2016-05-02T05:03:31.165Z,14.51
2016-05-02T05:04:31.167Z,14.59
2016-05-02T05:05:30.951Z,14.6
2016-05-02T05:06:32.344Z,14.63
2016-05-02T05:07:30.957Z,14.48
2016-05-02T05:08:31.335Z,14.52
2016-05-02T05:09:30.931Z,14.53
2016-05-02T05:10:31.324Z,14.56
2016-05-02T05:11:30.920Z,14.57
2016-05-02T05:12:31.110Z,14.51
2016-05-02T05:13:30.942Z,14.56
2016-05-02T05:14:31.085Z,14.49
2016-05-02T05:15:30.884Z,14.49
2016-05-02T05:16:30.934Z,14.52
2016-05-02T05:17:30.874Z,14.51
2016-05-02T05:18:31.267Z,14.51
2016-05-02T05:19:30.723Z,14.52
2016-05-02T05:20:31.053Z,14.56
2016-05-02T05:21:31.025Z,14.57
2016-05-02T05:22:31.262Z,14.63
2016-05-02T05:23:31.047Z,14.6
2016-05-02T05:24:31.236Z,14.53
2016-05-02T05:25:31.224Z,14.53
2016-05-02T05:26:30.852Z,14.46
2016-05-02T05:27:30.854Z,14.53
2016-05-02T05:28:30.997Z,14.48
2016-05-02T05:29:31.000Z,14.56
2016-05-02T05:30:31.003Z,14.51
2016-05-02T05:31:31.177Z,14.49
2016-05-02T05:32:31.024Z,14.51
2016-05-02T05:33:31.182Z,14.49
2016-05-02T05:34:30.951Z,14.53
2016-05-02T05:35:30.954Z,14.53
2016-05-02T05:36:30.753Z,14.51
2016-05-02T05:37:30.943Z,14.53
2016-05-02T05:38:30.571Z,14.53
2016-05-02T05:39:30.932Z,14.53
2016-05-02T05:40:30.921Z,14.56
2016-05-02T05:41:31.110Z,14.53
2016-05-02T05:42:31.128Z,14.56
2016-05-02T05:43:30.912Z,14.57
2016-05-02T05:44:30.884Z,14.61
2016-05-02T05:45:30.887Z,14.59
2016-05-02T05:46:30.686Z,14.59
2016-05-02T05:47:30.876Z,14.57
2016-05-02T05:48:30.457Z,14.61
2016-05-02T05:49:30.851Z,14.66
2016-05-02T05:50:31.056Z,14.63
2016-05-02T05:51:30.669Z,14.64
2016-05-02T05:52:31.046Z,14.61
2016-05-02T05:53:30.877Z,14.7
2016-05-02T05:54:30.614Z,14.75
2016-05-02T05:55:30.601Z,14.56
2016-05-02T05:56:30.604Z,14.61
2016-05-02T05:57:30.403Z,14.64
2016-05-02T05:58:30.796Z,14.67
2016-05-02T05:59:30.390Z,14.71
2016-05-02T06:00:30.786Z,14.69
2016-05-02T06:01:30.571Z,14.69
2016-05-02T06:02:30.573Z,14.67
2016-05-02T06:03:30.560Z,14.67
2016-05-02T06:04:30.969Z,14.67
2016-05-02T06:05:30.940Z,14.64
2016-05-02T06:06:30.581Z,14.7
2016-05-02T06:07:30.599Z,14.66
2016-05-02T06:08:30.933Z,14.67
2016-05-02T06:09:30.574Z,14.69
2016-05-02T06:10:30.343Z,14.74
2016-05-02T06:11:30.720Z,14.82
2016-05-02T06:12:30.706Z,14.87
2016-05-02T06:13:30.740Z,14.74
2016-05-02T06:14:30.696Z,14.85
2016-05-02T06:15:30.480Z,14.83
2016-05-02T06:16:30.873Z,14.9
2016-05-02T06:17:30.673Z,14.94
2016-05-02T06:18:30.864Z,14.98
2016-05-02T06:19:30.850Z,14.98
2016-05-02T06:20:30.634Z,15.01
2016-05-02T06:21:30.933Z,15.07
2016-05-02T06:22:30.691Z,15.18
2016-05-02T06:23:30.428Z,15.08
2016-05-02T06:24:30.618Z,15.18
2016-05-02T06:25:30.809Z,15.15
2016-05-02T06:26:30.655Z,15.2
2016-05-02T06:27:30.392Z,15.23
2016-05-02T06:28:30.379Z,15.18
2016-05-02T06:29:30.585Z,15.19
2016-05-02T06:30:30.572Z,15.22
2016-05-02T06:31:30.622Z,15.22
2016-05-02T06:32:30.562Z,15.22
2016-05-02T06:33:30.565Z,15.16
2016-05-02T06:34:30.552Z,15.18
2016-05-02T06:35:30.538Z,15.3
2016-05-02T06:36:29.996Z,15.26
2016-05-02T06:37:29.966Z,15.25
2016-05-02T06:38:30.532Z,15.25
2016-05-02T06:39:30.518Z,15.31
2016-05-02T06:40:30.349Z,15.31
2016-05-02T06:41:30.509Z,15.4
2016-05-02T06:42:30.355Z,15.37
2016-05-02T06:43:30.170Z,15.35
2016-05-02T06:44:30.688Z,15.37
2016-05-02T06:45:30.269Z,15.37
2016-05-02T06:46:30.115Z,15.44
2016-05-02T06:47:30.117Z,15.43
2016-05-02T06:48:30.465Z,15.49
2016-05-02T06:49:30.467Z,15.45
2016-05-02T06:50:30.236Z,15.44
2016-05-02T06:51:31.286Z,15.49
2016-05-02T06:52:30.428Z,15.47
2016-05-02T06:53:30.618Z,15.43
2016-05-02T06:54:30.418Z,15.44
2016-05-02T06:55:30.608Z,15.47
2016-05-02T06:56:30.408Z,15.44
2016-05-02T06:57:30.035Z,15.49
2016-05-02T06:58:30.382Z,15.41
2016-05-02T06:59:30.400Z,15.52
2016-05-02T07:00:30.372Z,15.58
2016-05-02T07:01:30.374Z,15.45
2016-05-02T07:02:30.361Z,15.59
2016-05-02T07:03:30.161Z,15.53
2016-05-02T07:04:30.149Z,15.58
2016-05-02T07:05:30.338Z,15.63
2016-05-02T07:06:31.138Z,15.56
2016-05-02T07:07:30.141Z,15.58
2016-05-02T07:08:30.127Z,15.59
2016-05-02T07:09:30.115Z,15.53
2016-05-02T07:10:30.102Z,15.59
2016-05-02T07:11:30.151Z,15.7
2016-05-02T07:12:30.107Z,15.6
2016-05-02T07:13:30.501Z,15.62
2016-05-02T07:14:30.081Z,15.67
2016-05-02T07:15:30.287Z,15.67
2016-05-02T07:16:29.898Z,15.65
2016-05-02T07:17:30.277Z,15.67
2016-05-02T07:18:30.264Z,15.7
2016-05-02T07:19:30.048Z,15.73
2016-05-02T07:20:29.894Z,15.73
2016-05-02T07:21:30.241Z,15.68
2016-05-02T07:22:30.025Z,15.73
2016-05-02T07:23:30.277Z,15.75
2016-05-02T07:24:30.265Z,15.81
2016-05-02T07:25:30.205Z,15.81
2016-05-02T07:26:30.208Z,15.93
2016-05-02T07:27:30.195Z,15.86
2016-05-02T07:28:29.994Z,15.88
2016-05-02T07:29:30.388Z,15.92
2016-05-02T07:30:30.171Z,15.89
2016-05-02T07:31:29.971Z,15.86
2016-05-02T07:32:29.957Z,15.88
2016-05-02T07:33:30.163Z,15.91
2016-05-02T07:34:29.947Z,15.88
2016-05-02T07:35:29.825Z,15.91
2016-05-02T07:36:30.343Z,15.84
2016-05-02T07:37:29.955Z,15.92
2016-05-02T07:38:29.989Z,15.92
2016-05-02T07:39:29.555Z,15.92
2016-05-02T07:40:29.948Z,15.91
2016-05-02T07:41:30.107Z,15.98
2016-05-02T07:42:30.298Z,15.93
2016-05-02T07:43:29.879Z,15.98
2016-05-02T07:44:29.881Z,15.92
2016-05-02T07:45:30.274Z,16.02
2016-05-02T07:46:29.762Z,15.95
2016-05-02T07:47:30.061Z,15.95
2016-05-02T07:48:30.048Z,15.96
2016-05-02T07:49:29.691Z,15.99
2016-05-02T07:50:29.694Z,15.93
2016-05-02T07:51:31.337Z,15.96
2016-05-02T07:52:30.043Z,16.06
2016-05-02T07:53:29.686Z,16.02
2016-05-02T07:54:29.861Z,16.08
2016-05-02T07:55:30.222Z,16.08
2016-05-02T07:56:29.803Z,16.07
2016-05-02T07:57:30.197Z,16.13
2016-05-02T07:58:29.997Z,16.04
2016-05-02T07:59:29.983Z,16.11
2016-05-02T08:00:30.189Z,16.07
2016-05-02T08:01:29.974Z,16.11
2016-05-02T08:02:29.976Z,16.08
2016-05-02T08:03:29.760Z,16.07
2016-05-02T08:04:29.810Z,16.14
2016-05-02T08:05:29.952Z,16.11
2016-05-02T08:06:30.440Z,16.18
2016-05-02T08:07:30.146Z,16.11
2016-05-02T08:08:29.727Z,16.13
2016-05-02T08:09:30.136Z,16.16
2016-05-02T08:10:29.918Z,16.14
2016-05-02T08:11:29.563Z,16.17
2016-05-02T08:12:29.909Z,16.14
2016-05-02T08:13:29.896Z,16.11
2016-05-02T08:14:30.087Z,16.14
2016-05-02T08:15:29.887Z,16.16
2016-05-02T08:16:29.670Z,16.22
2016-05-02T08:17:29.672Z,16.21
2016-05-02T08:18:29.862Z,16.21
2016-05-02T08:19:29.865Z,16.16
2016-05-02T08:20:29.853Z,16.17
2016-05-02T08:21:29.606Z,16.25
2016-05-02T08:22:29.639Z,16.27
2016-05-02T08:23:29.641Z,16.27
2016-05-02T08:24:30.036Z,16.25
2016-05-02T08:25:29.616Z,16.33
2016-05-02T08:26:30.025Z,16.26
2016-05-02T08:27:29.809Z,16.3
2016-05-02T08:28:30.014Z,16.3
2016-05-02T08:29:30.002Z,16.27
2016-05-02T08:30:29.989Z,16.32
2016-05-02T08:31:29.585Z,16.32
2016-05-02T08:32:29.416Z,16.3
2016-05-02T08:33:29.763Z,16.42
2016-05-02T08:34:29.765Z,16.34
2016-05-02T08:35:29.768Z,16.34
2016-05-02T08:36:30.818Z,16.42
2016-05-02T08:37:29.585Z,16.44
2016-05-02T08:38:29.745Z,16.4
2016-05-02T08:39:29.732Z,16.52
2016-05-02T08:40:29.578Z,16.49
2016-05-02T08:41:29.924Z,16.54
2016-05-02T08:42:29.365Z,16.49
2016-05-02T08:43:29.540Z,16.62
2016-05-02T08:44:29.714Z,16.57
2016-05-02T08:45:29.498Z,16.67
2016-05-02T08:46:29.704Z,16.59
2016-05-02T08:47:29.473Z,16.58
2016-05-02T08:48:29.693Z,16.63
2016-05-02T08:49:29.915Z,16.65
2016-05-02T08:50:29.464Z,16.62
2016-05-02T08:51:29.686Z,16.62
2016-05-02T08:52:29.657Z,16.59
2016-05-02T08:53:29.645Z,16.51
2016-05-02T08:54:29.647Z,16.63
2016-05-02T08:55:29.227Z,16.62
2016-05-02T08:56:29.637Z,16.65
2016-05-02T08:57:29.625Z,16.65
2016-05-02T08:58:29.220Z,16.66
2016-05-02T08:59:29.676Z,16.59
2016-05-02T09:00:29.648Z,16.7
2016-05-02T09:01:29.822Z,16.7
2016-05-02T09:02:29.403Z,16.7
2016-05-02T09:03:29.594Z,16.69
2016-05-02T09:04:29.783Z,16.67
2016-05-02T09:05:29.380Z,16.59
2016-05-02T09:06:29.617Z,16.74
2016-05-02T09:07:29.572Z,16.63
2016-05-02T09:08:29.607Z,16.65
2016-05-02T09:09:29.563Z,16.63
2016-05-02T09:10:29.143Z,16.7
2016-05-02T09:11:29.537Z,16.66
2016-05-02T09:12:29.523Z,16.77
2016-05-02T09:13:29.729Z,16.66
2016-05-02T09:14:29.716Z,16.67
2016-05-02T09:15:29.531Z,16.66
2016-05-02T09:16:29.706Z,16.72
2016-05-02T09:17:29.553Z,16.7
2016-05-02T09:18:29.149Z,16.8
2016-05-02T09:19:29.479Z,16.81
2016-05-02T09:20:29.092Z,16.77
2016-05-02T09:21:29.189Z,16.81
2016-05-02T09:22:29.488Z,16.85
2016-05-02T09:23:29.490Z,16.82
2016-05-02T09:24:29.462Z,16.8
2016-05-02T09:25:29.480Z,16.82
2016-05-02T09:26:29.453Z,16.84
2016-05-02T09:27:29.501Z,16.84
2016-05-02T09:28:28.723Z,16.84
2016-05-02T09:29:29.429Z,16.87
2016-05-02T09:30:29.228Z,16.84
2016-05-02T09:31:29.433Z,16.88
2016-05-02T09:32:29.421Z,16.97
2016-05-02T09:33:29.206Z,16.85
2016-05-02T09:34:29.411Z,16.95
2016-05-02T09:35:29.397Z,16.91
2016-05-02T09:36:29.401Z,16.9
2016-05-02T09:37:29.278Z,16.95
2016-05-02T09:38:29.390Z,16.92
2016-05-02T09:39:29.378Z,17.02
2016-05-02T09:40:29.208Z,16.99
2016-05-02T09:41:29.226Z,16.97
2016-05-02T09:42:29.011Z,16.95
2016-05-02T09:43:29.357Z,16.94
2016-05-02T09:44:29.203Z,17.03
2016-05-02T09:45:29.144Z,17.03
2016-05-02T09:46:29.537Z,17.07
2016-05-02T09:47:29.337Z,17.1
2016-05-02T09:48:29.324Z,17.12
2016-05-02T09:49:29.326Z,17.12
2016-05-02T09:50:29.110Z,17.18
2016-05-02T09:51:30.440Z,17.21
2016-05-02T09:52:29.163Z,17.15
2016-05-02T09:53:28.900Z,17.22
2016-05-02T09:54:28.871Z,17.25
2016-05-02T09:55:28.889Z,17.21
2016-05-02T09:56:28.923Z,17.24
2016-05-02T09:57:29.472Z,17.27
2016-05-02T09:58:29.272Z,17.27
2016-05-02T09:59:29.478Z,17.31
2016-05-02T10:00:29.308Z,17.3
2016-05-02T10:01:29.452Z,17.36
2016-05-02T10:02:29.049Z,17.3
2016-05-02T10:03:28.895Z,17.3
2016-05-02T10:04:29.476Z,17.4
2016-05-02T10:05:28.822Z,17.38
2016-05-02T10:06:29.247Z,17.38
2016-05-02T10:07:29.421Z,17.4
2016-05-02T10:08:28.908Z,17.4
2016-05-02T10:09:29.085Z,17.43
2016-05-02T10:10:29.270Z,17.38
2016-05-02T10:11:28.957Z,17.46
2016-05-02T10:12:29.347Z,17.49
2016-05-02T10:13:29.018Z,17.47
2016-05-02T10:14:29.428Z,17.47
2016-05-02T10:15:29.633Z,17.5
2016-05-02T10:16:29.230Z,17.54
2016-05-02T10:17:29.279Z,17.46
2016-05-02T10:18:29.454Z,17.5
2016-05-02T10:19:29.250Z,17.45
2016-05-02T10:20:29.289Z,17.49
2016-05-02T10:21:29.658Z,17.5
2016-05-02T10:22:29.666Z,17.54
2016-05-02T10:23:29.456Z,17.58
2016-05-02T10:24:28.899Z,17.55
2016-05-02T10:25:29.092Z,17.62
2016-05-02T10:26:29.644Z,17.55
2016-05-02T10:27:29.649Z,17.68
2016-05-02T10:28:29.246Z,17.65
2016-05-02T10:29:29.080Z,17.71
2016-05-02T10:30:29.286Z,17.68
2016-05-02T10:31:29.429Z,17.76
2016-05-02T10:32:29.215Z,17.66
2016-05-02T10:33:29.624Z,17.69
2016-05-02T10:34:29.611Z,17.76
2016-05-02T10:35:29.427Z,17.66
2016-05-02T10:36:29.272Z,17.73
2016-05-02T10:37:29.620Z,17.79
2016-05-02T10:38:29.388Z,17.81
2016-05-02T10:39:29.281Z,17.87
2016-05-02T10:40:29.377Z,17.87
2016-05-02T10:41:29.177Z,17.81
2016-05-02T10:42:29.180Z,17.79
2016-05-02T10:43:29.371Z,17.92
2016-05-02T10:44:29.357Z,17.94
2016-05-02T10:45:29.563Z,17.94
2016-05-02T10:46:29.346Z,17.88
2016-05-02T10:47:29.131Z,17.88
2016-05-02T10:48:29.336Z,17.96
2016-05-02T10:49:29.340Z,17.94
2016-05-02T10:50:28.920Z,17.96
2016-05-02T10:51:29.220Z,17.99
2016-05-02T10:52:29.112Z,18.01
2016-05-02T10:53:28.975Z,18.02
2016-05-02T10:54:29.509Z,17.99
2016-05-02T10:55:29.089Z,18.05
2016-05-02T10:56:29.498Z,18.08
2016-05-02T10:57:29.079Z,18.08
2016-05-02T10:58:29.129Z,18.05
2016-05-02T10:59:29.085Z,18.05
2016-05-02T11:00:29.275Z,18.03
2016-05-02T11:01:29.278Z,18.08
2016-05-02T11:02:29.264Z,18.11
2016-05-02T11:03:29.267Z,18.16
2016-05-02T11:04:29.270Z,18.1
2016-05-02T11:05:29.101Z,18.1
2016-05-02T11:06:28.683Z,18.1
2016-05-02T11:07:29.435Z,18.2
2016-05-02T11:08:29.250Z,18.11
2016-05-02T11:09:29.033Z,18.19
2016-05-02T11:10:29.239Z,18.21
2016-05-02T11:11:29.429Z,18.17
2016-05-02T11:12:29.213Z,18.13
2016-05-02T11:13:29.202Z,18.17
2016-05-02T11:14:29.000Z,18.21
2016-05-02T11:15:29.410Z,18.21
2016-05-02T11:16:29.193Z,18.21
2016-05-02T11:17:29.196Z,18.23
2016-05-02T11:18:28.980Z,18.2
2016-05-02T11:19:29.170Z,18.27
2016-05-02T11:20:29.188Z,18.27
2016-05-02T11:21:29.004Z,18.34
2016-05-02T11:22:29.178Z,18.26
2016-05-02T11:23:29.360Z,18.35
2016-05-02T11:24:29.160Z,18.39
2016-05-02T11:25:29.148Z,18.47
2016-05-02T11:26:28.946Z,18.47
2016-05-02T11:27:28.996Z,18.47
2016-05-02T11:28:29.342Z,18.44
2016-05-02T11:29:28.923Z,18.47
2016-05-02T11:30:28.926Z,18.44
2016-05-02T11:31:29.334Z,18.41
2016-05-02T11:32:29.338Z,18.53
2016-05-02T11:33:28.919Z,18.49
2016-05-02T11:34:29.156Z,18.5
2016-05-02T11:35:28.689Z,18.51
2016-05-02T11:36:28.942Z,18.45
2016-05-02T11:37:29.086Z,18.45
2016-05-02T11:38:28.745Z,18.54
2016-05-02T11:39:28.669Z,18.5
2016-05-02T11:40:28.875Z,18.51
2016-05-02T11:41:28.503Z,18.53
2016-05-02T11:42:28.849Z,18.54
2016-05-02T11:43:28.866Z,18.54
2016-05-02T11:44:29.058Z,18.65
2016-05-02T11:45:29.044Z,18.63
2016-05-02T11:46:29.250Z,18.61
2016-05-02T11:47:28.628Z,18.66
2016-05-02T11:48:28.834Z,18.65
2016-05-02T11:49:28.837Z,18.68
2016-05-02T11:50:28.871Z,18.68
2016-05-02T11:51:29.232Z,18.74
2016-05-02T11:52:28.610Z,18.74
2016-05-02T11:53:28.801Z,18.69
2016-05-02T11:54:28.803Z,18.81
2016-05-02T11:55:28.853Z,18.76
2016-05-02T11:56:28.793Z,18.75
2016-05-02T11:57:28.654Z,18.74
2016-05-02T11:58:29.220Z,18.84
2016-05-02T11:59:28.879Z,18.82
2016-05-02T12:00:28.585Z,18.84
2016-05-02T12:01:28.978Z,18.86
2016-05-02T12:02:29.168Z,18.89
2016-05-02T12:03:28.765Z,18.81
2016-05-02T12:04:28.549Z,18.93
2016-05-02T12:05:28.598Z,18.86
2016-05-02T12:06:29.023Z,18.91
2016-05-02T12:07:28.589Z,18.84
2016-05-02T12:08:28.935Z,18.82
2016-05-02T12:09:28.375Z,18.9
2016-05-02T12:10:28.737Z,18.91
2016-05-02T12:11:28.927Z,18.91
2016-05-02T12:12:29.133Z,19
2016-05-02T12:13:28.730Z,18.99
2016-05-02T12:14:28.608Z,18.97
2016-05-02T12:15:28.547Z,18.94
2016-05-02T12:16:28.705Z,19
2016-05-02T12:17:28.708Z,18.99
2016-05-02T12:18:28.711Z,19.09
2016-05-02T12:19:28.902Z,19.1
2016-05-02T12:20:28.702Z,19.07
2016-05-02T12:21:28.891Z,18.99
2016-05-02T12:22:28.894Z,19.06
2016-05-02T12:23:28.474Z,19.17
2016-05-02T12:24:28.915Z,19.12
2016-05-02T12:25:28.667Z,19.15
2016-05-02T12:26:28.858Z,19.12
2016-05-02T12:27:28.517Z,19.2
2016-05-02T12:28:28.645Z,19.19
2016-05-02T12:29:28.850Z,19.2
2016-05-02T12:30:29.056Z,19.2
2016-05-02T12:31:28.840Z,19.23
2016-05-02T12:32:28.858Z,19.25
2016-05-02T12:33:28.846Z,19.23
2016-05-02T12:34:28.645Z,19.28
2016-05-02T12:35:28.475Z,19.28
2016-05-02T12:36:29.042Z,19.27
2016-05-02T12:37:29.028Z,19.27
2016-05-02T12:38:28.625Z,19.25
2016-05-02T12:39:28.800Z,19.23
2016-05-02T12:40:28.864Z,19.35
2016-05-02T12:41:28.805Z,19.4
2016-05-02T12:42:28.604Z,19.31
2016-05-02T12:43:28.607Z,19.38
2016-05-02T12:44:28.813Z,19.42
2016-05-02T12:45:28.988Z,19.42
2016-05-02T12:46:28.583Z,19.46
2016-05-02T12:47:28.571Z,19.46
2016-05-02T12:48:28.354Z,19.42
2016-05-02T12:49:28.420Z,19.47
2016-05-02T12:50:28.594Z,19.37
2016-05-02T12:51:28.425Z,19.45
2016-05-02T12:52:28.569Z,19.49
2016-05-02T12:53:28.555Z,19.56
2016-05-02T12:54:28.824Z,19.47
2016-05-02T12:55:28.607Z,19.57